Latest Weather Observations for Wynyard

IDT60801

Issued at 2:32 am EDT Sunday 4 December 2016 (issued every 30 minutes, with the page automatically refreshed every 10 minutes)

About weather observations | Map of weather stations | Latest weather observations for TAS | Other Formats
Station Details ID: 091107 Name: WYNYARD AIRPORT Lat: -41.00 Lon: 145.73 Height: 12.0 m
Data from the previous 72 hours. | See also: Recent months at Wynyard
Date/Time
EDT
Temp
°C
App
Temp
°C
Dew
Point
°C
Rel
Hum
%
Delta-T
°C
Wind Press
QNH
hPa
Press
MSL
hPa
Rain since
9am
mm
Dir  Spd
km/h
Gust
km/h
Spd
kts
Gust
kts
04/02:00am 4.8 2.0 3.3 90 0.6 WSW 7 9 4 5 1014.1 1014.1 0.0
04/01:30am 5.7 2.3 4.2 90 0.6 WSW 11 11 6 6 1014.3 1014.3 0.0
04/01:00am 6.2 3.2 4.0 86 0.9 WNW 9 11 5 6 1014.7 1014.7 0.0
04/12:30am 7.4 4.5 4.7 83 1.2 WNW 9 13 5 7 1014.9 1014.9 0.0
04/12:00am 8.0 4.8 5.3 83 1.2 WNW 11 15 6 8 1015.0 1015.0 0.0
 
Date/Time
EDT
Temp
°C
App
Temp
°C
Dew
Point
°C
Rel
Hum
%
Delta-T
°C
Wind Press
QNH
hPa
Press
MSL
hPa
Rain since
9am
mm
Dir  Spd
km/h
Gust
km/h
Spd
kts
Gust
kts
03/11:30pm 8.4 6.1 5.5 82 1.3 W 7 9 4 5 1015.1 1015.1 0.0
03/11:00pm 8.7 5.5 5.3 79 1.5 W 11 13 6 7 1015.4 1015.4 0.0
03/10:30pm 8.7 5.2 5.3 79 1.5 W 13 15 7 8 1015.6 1015.6 0.0
03/10:00pm 10.1 7.3 5.3 72 2.2 W 9 9 5 5 1015.5 1015.5 0.0
03/09:30pm 11.6 8.1 5.5 66 2.8 W 13 15 7 8 1015.4 1015.4 0.0
03/09:00pm 13.1 8.5 5.5 60 3.6 W 19 26 10 14 1015.1 1015.1 0.0
03/08:30pm 14.0 9.3 5.9 58 3.8 W 20 24 11 13 1014.8 1014.8 0.0
03/08:00pm 15.4 9.6 6.2 54 4.4 W 26 35 14 19 1014.5 1014.5 0.0
03/07:30pm 16.7 10.9 6.2 50 5.1 W 26 37 14 20 1014.0 1014.0 0.0
03/07:00pm 16.5 11.5 8.2 58 4.2 NNW 24 32 13 17 1013.6 1013.6 0.0
03/06:30pm 16.6 10.1 8.1 57 4.3 NW 32 44 17 24 1013.6 1013.6 0.0
03/06:00pm 16.5 9.6 7.2 54 4.6 NW 33 46 18 25 1013.3 1013.3 0.0
03/05:30pm 16.7 9.7 6.8 52 4.9 NW 33 46 18 25 1013.4 1013.4 0.0
03/05:00pm 16.7 9.6 6.2 50 5.1 NNW 33 46 18 25 1013.4 1013.4 0.0
03/04:30pm 17.3 10.6 7.4 52 5.0 NW 32 44 17 24 1013.7 1013.7 0.0
03/04:00pm 16.4 9.8 7.6 56 4.4 NNW 32 41 17 22 1013.8 1013.8 0.0
03/03:30pm 16.5 10.0 8.0 57 4.3 NNW 32 43 17 23 1014.0 1014.0 0.0
03/03:00pm 17.0 11.5 7.6 54 4.7 NNW 26 37 14 20 1014.2 1014.2 0.0
03/02:30pm 15.8 10.2 7.1 56 4.3 NNW 26 32 14 17 1014.5 1014.5 0.0
03/02:00pm 15.6 10.0 7.1 57 4.2 NNW 26 35 14 19 1014.8 1014.8 0.0
03/01:30pm 14.9 10.1 7.5 61 3.7 NNW 22 33 12 18 1014.8 1014.8 0.0
03/01:00pm 14.9 10.6 7.9 63 3.5 NNW 20 33 11 18 1015.1 1015.1 0.0
03/12:30pm 15.7 10.6 7.5 58 4.1 WNW 24 32 13 17 1015.3 1015.3 0.0
03/12:00pm 16.3 12.6 8.0 58 4.2 WSW 17 24 9 13 1015.4 1015.4 0.0
03/11:30am 15.3 10.6 7.8 61 3.7 NW 22 32 12 17 1015.6 1015.6 0.0
03/11:00am 14.7 10.3 7.5 62 3.6 NNW 20 28 11 15 1015.4 1015.4 0.0
03/10:30am 15.9 11.7 5.8 51 4.9 W 17 24 9 13 1015.1 1015.1 0.0
03/10:00am 16.0 11.9 6.4 53 4.7 W 17 26 9 14 1015.2 1015.2 0.0
03/09:30am 15.4 11.9 7.4 59 4.0 WNW 15 22 8 12 1015.3 1015.3 0.0
03/09:00am 14.2 9.3 6.8 61 3.6 WSW 22 30 12 16 1015.2 1015.2 0.0
03/08:30am 13.8 10.5 8.0 68 2.9 WSW 15 20 8 11 1015.2 1015.2 0.0
03/08:00am 11.7 9.2 8.0 78 1.8 WSW 11 15 6 8 1014.9 1014.9 0.0
03/07:30am 9.7 7.8 7.6 87 1.0 W 7 11 4 6 1014.9 1014.9 0.0
03/07:00am 7.9 5.0 6.5 91 0.6 WNW 11 13 6 7 1014.6 1014.6 0.0
03/06:30am 6.2 3.8 5.2 93 0.4 W 7 9 4 5 1014.3 1014.3 0.0
03/06:00am 5.4 2.8 4.1 91 0.5 W 7 7 4 4 1014.2 1014.2 0.0
03/05:30am 6.8 4.4 5.4 91 0.6 NW 7 9 4 5 1014.0 1014.0 0.0
03/05:00am 6.2 3.7 5.0 92 0.5 WSW 7 9 4 5 1013.7 1013.7 0.0
03/04:30am 6.8 4.6 5.4 91 0.6 WSW 6 7 3 4 1013.7 1013.7 0.0
03/04:00am 6.4 3.5 4.9 90 0.7 W 9 11 5 6 1013.9 1013.9 0.0
03/03:30am 7.0 4.7 5.9 93 0.5 NNW 7 9 4 5 1014.0 1014.0 0.0
03/03:00am 5.3 2.6 3.8 90 0.6 WSW 7 9 4 5 1014.0 1014.0 0.0
03/02:30am 6.6 3.9 5.4 92 0.5 WNW 9 11 5 6 1014.0 1014.0 0.0
03/02:00am 6.4 3.6 5.0 91 0.6 WNW 9 11 5 6 1014.0 1014.0 0.0
03/01:30am 6.0 3.1 4.5 90 0.6 WNW 9 11 5 6 1014.1 1014.1 0.0
03/01:00am 6.3 3.4 4.6 89 0.7 W 9 9 5 5 1014.2 1014.2 0.0
03/12:30am 7.2 4.8 5.2 87 0.9 WSW 7 7 4 4 1014.2 1014.2 0.0
03/12:00am 9.2 7.0 6.1 81 1.4 WNW 7 9 4 5 1014.3 1014.3 0.0
 
Date/Time
EDT
Temp
°C
App
Temp
°C
Dew
Point
°C
Rel
Hum
%
Delta-T
°C
Wind Press
QNH
hPa
Press
MSL
hPa
Rain since
9am
mm
Dir  Spd
km/h
Gust
km/h
Spd
kts
Gust
kts
02/11:30pm 8.6 6.2 5.2 79 1.5 WNW 7 9 4 5 1014.3 1014.3 0.0
02/11:00pm 9.0 6.3 5.4 78 1.6 W 9 11 5 6 1014.1 1014.1 0.0
02/10:30pm 10.3 6.9 5.7 73 2.1 W 13 17 7 9 1014.0 1014.0 0.0
02/10:00pm 11.6 8.3 6.5 71 2.4 WSW 13 19 7 10 1013.9 1013.9 0.0
02/09:30pm 11.1 7.2 5.4 68 2.6 W 15 20 8 11 1013.5 1013.5 0.0
02/09:00pm 12.2 7.6 5.4 63 3.2 W 19 26 10 14 1013.1 1013.1 0.0
02/08:30pm 13.5 6.7 4.9 56 4.0 WSW 30 41 16 22 1012.7 1012.7 0.0
02/08:00pm 13.8 8.2 3.6 50 4.6 W 22 33 12 18 1011.8 1011.8 0.0
02/07:30pm 14.5 6.8 2.4 44 5.4 W 32 39 17 21 1011.5 1011.5 0.0
02/07:00pm 15.5 8.2 2.3 41 5.9 W 30 41 16 22 1011.1 1011.1 0.0
02/06:30pm 16.2 8.9 2.6 40 6.1 W 30 39 16 21 1010.7 1010.7 0.0
02/06:00pm 16.5 8.7 2.9 40 6.2 W 33 46 18 25 1010.4 1010.4 0.0
02/05:30pm 17.1 9.6 3.4 40 6.3 WSW 32 50 17 27 1010.3 1010.3 0.0
02/05:05pm 17.2 9.1 3.5 40 6.3 WSW 35 54 19 29 1010.2 1010.2 0.0
02/05:00pm 17.1 8.7 3.8 41 6.2 WSW 37 54 20 29 1010.0 1010.0 0.0
02/04:57pm 17.5 9.4 3.0 38 6.7 WSW 35 54 19 29 1010.0 1010.0 0.0
02/04:30pm 17.3 9.6 3.6 40 6.4 W 33 48 18 26 1009.8 1009.8 0.0
02/04:25pm 18.3 10.5 4.8 41 6.5 W 35 52 19 28 1009.8 1009.8 0.0
02/04:23pm 18.0 10.1 4.2 40 6.5 W 35 52 19 28 1009.7 1009.7 0.0
02/04:18pm 17.8 10.2 3.7 39 6.6 W 33 46 18 25 1009.6 1009.6 0.0
02/04:00pm 17.6 10.1 4.6 42 6.2 WSW 33 48 18 26 1009.6 1009.6 0.0
02/03:30pm 18.8 11.3 4.2 38 6.9 WSW 33 46 18 25 1009.4 1009.4 0.0
02/03:28pm 18.7 10.8 4.1 38 6.9 W 35 48 19 26 1009.3 1009.3 0.0
02/03:00pm 18.5 10.2 4.3 39 6.8 W 37 52 20 28 1009.1 1009.1 0.0
02/02:30pm 18.6 10.4 4.8 40 6.6 W 37 56 20 30 1008.8 1008.8 0.0
02/02:04pm 18.5 10.5 3.6 37 7.0 W 35 54 19 29 1008.7 1008.7 0.0
02/02:00pm 18.6 11.3 4.4 39 6.8 W 32 44 17 24 1008.7 1008.7 0.0
02/01:49pm 18.2 10.7 4.4 40 6.6 W 33 52 18 28 1008.6 1008.6 0.0
02/01:30pm 18.6 10.3 4.0 38 6.9 W 37 52 20 28 1008.3 1008.3 0.0
02/01:09pm 18.2 10.3 2.1 34 7.3 WNW 33 56 18 30 1008.1 1008.1 0.0
02/01:00pm 18.2 9.7 2.9 36 7.1 W 37 50 20 27 1008.3 1008.3 0.0
02/12:30pm 18.2 10.1 5.4 43 6.2 W 37 52 20 28 1008.1 1008.1 0.0
02/12:00pm 18.2 10.9 5.4 43 6.2 W 33 48 18 26 1007.7 1007.7 0.0
02/11:30am 17.8 11.0 6.7 48 5.5 W 32 43 17 23 1007.8 1007.8 0.0
02/11:02am 17.4 10.2 7.5 52 5.0 WSW 35 54 19 29 1007.7 1007.7 0.0
02/11:00am 17.6 10.3 7.1 50 5.3 WSW 35 52 19 28 1007.7 1007.7 0.0
02/10:58am 17.4 10.5 6.6 49 5.3 WSW 32 52 17 28 1007.7 1007.7 0.0
02/10:30am 17.4 10.9 8.3 55 4.7 WSW 32 48 17 26 1007.6 1007.6 0.0
02/10:00am 16.4 9.0 8.4 59 4.1 WSW 37 56 20 30 1007.3 1007.3 0.0
02/09:39am 16.5 10.2 9.7 64 3.6 WSW 33 52 18 28 1007.2 1007.2 0.0
02/09:30am 15.6 9.2 8.4 62 3.6 WSW 32 48 17 26 1007.1 1007.1 0.0
02/09:00am 14.6 7.6 10.0 74 2.4 W 37 46 20 25 1007.1 1007.1 0.0
02/08:50am 14.2 8.4 9.6 74 2.4 WSW 30 50 16 27 1006.9 1006.9 0.0
02/08:30am 15.3 10.4 11.3 77 2.1 W 28 37 15 20 1006.7 1006.7 0.0
02/08:29am 15.0 10.0 10.8 76 2.2 W 28 37 15 20 1006.7 1006.7 0.0
02/08:14am 13.7 9.1 11.0 84 1.4 WNW 26 33 14 18 1006.6 1006.6 0.0
02/08:03am 13.7 9.1 11.2 85 1.3 WNW 26 37 14 20 1006.5 1006.5 0.0
02/08:00am 13.8 8.8 11.1 84 1.4 WNW 28 37 15 20 1006.6 1006.6 0.0
02/07:30am 13.5 10.7 9.9 79 1.9 WNW 15 22 8 12 1006.2 1006.2 0.0
02/07:00am 12.3 11.2 9.9 85 1.2 WSW 6 17 3 9 1005.8 1005.8 0.0
02/06:30am 11.0 10.3 8.6 85 1.2 SW 2 6 1 3 1005.6 1005.6 0.0
02/06:00am 10.8 9.1 8.4 85 1.2 NNW 7 9 4 5 1005.2 1005.2 0.0
02/05:30am 10.2 8.7 8.3 88 0.9 WNW 6 7 3 4 1005.1 1005.1 0.0
02/05:00am 10.2 8.2 8.5 89 0.8 WSW 9 11 5 6 1005.0 1005.0 0.0
02/04:30am 9.8 7.7 8.4 91 0.7 W 9 11 5 6 1004.8 1004.8 0.0
02/04:00am 9.1 6.8 7.4 89 0.8 WNW 9 9 5 5 1004.8 1004.8 0.0
02/03:30am 9.4 6.4 7.7 89 0.8 W 13 15 7 8 1004.9 1004.9 0.0
02/03:00am 9.4 6.4 7.7 89 0.8 WSW 13 17 7 9 1004.8 1004.8 0.0
02/02:30am 10.1 6.5 8.4 89 0.8 WNW 17 19 9 10 1004.9 1004.9 0.0
02/02:00am 8.9 5.8 7.2 89 0.8 W 13 15 7 8 1004.4 1004.4 0.0
02/01:30am 9.6 6.6 7.5 87 1.0 WSW 13 15 7 8 1004.6 1004.6 0.0
02/01:00am 10.6 7.6 7.7 82 1.4 WNW 13 15 7 8 1004.8 1004.8 0.0
02/12:30am 11.5 8.7 8.4 81 1.5 WNW 13 15 7 8 1004.8 1004.8 0.0
02/12:00am 11.5 8.2 8.2 80 1.6 WNW 15 17 8 9 1005.1 1005.1 0.0
 
Date/Time
EDT
Temp
°C
App
Temp
°C
Dew
Point
°C
Rel
Hum
%
Delta-T
°C
Wind Press
QNH
hPa
Press
MSL
hPa
Rain since
9am
mm
Dir  Spd
km/h
Gust
km/h
Spd
kts
Gust
kts
01/11:30pm 12.3 8.8 8.8 79 1.7 W 17 20 9 11 1005.4 1005.4 0.0
01/11:00pm 12.6 9.8 8.5 76 2.0 W 13 19 7 10 1005.6 1005.6 0.0
01/10:30pm 13.6 9.6 9.1 74 2.3 W 20 24 11 13 1005.5 1005.5 0.0
01/10:00pm 14.1 9.7 9.1 72 2.6 W 22 32 12 17 1005.3 1005.3 0.0
01/09:30pm 14.3 10.9 9.1 71 2.6 WNW 17 20 9 11 1005.2 1005.2 0.0
01/09:00pm 15.2 11.7 8.9 66 3.2 W 17 24 9 13 1004.8 1004.8 0.0
01/08:30pm 16.4 12.2 9.8 65 3.5 W 22 32 12 17 1004.7 1004.7 0.0
01/08:00pm 17.7 14.2 11.0 65 3.6 W 20 28 11 15 1004.5 1004.5 0.0
01/07:30pm 18.4 14.9 12.2 67 3.4 WNW 22 30 12 16 1004.4 1004.4 0.0
01/07:00pm 18.3 14.8 12.3 68 3.3 NW 22 32 12 17 1004.2 1004.2 0.0
01/06:30pm 17.9 14.9 12.1 69 3.2 NNW 19 26 10 14 1004.1 1004.1 0.0
01/06:00pm 18.4 15.6 13.1 71 3.0 NW 20 24 11 13 1004.1 1004.1 0.0
01/05:30pm 17.9 15.6 14.0 78 2.2 NW 19 24 10 13 1004.1 1004.1 0.0
01/05:00pm 18.5 16.7 14.4 77 2.4 NNW 17 22 9 12 1004.3 1004.3 0.0
01/04:36pm 18.9 16.8 14.8 77 2.4 NW 19 24 10 13 1004.5 1004.5 0.0
01/04:30pm 18.7 16.2 14.2 75 2.6 NW 20 26 11 14 1004.5 1004.5 0.0
01/04:15pm 20.1 18.3 14.5 70 3.3 NNW 17 24 9 13 1004.8 1004.8 0.0
01/04:00pm 19.6 18.3 14.8 74 2.8 N 15 20 8 11 1004.7 1004.7 0.0
01/03:37pm 19.2 17.3 15.1 77 2.4 NW 19 26 10 14 1005.1 1005.1 0.0
01/03:30pm 19.0 17.4 14.9 77 2.4 NNW 17 22 9 12 1005.2 1005.2 0.0
01/03:06pm 19.0 17.1 15.3 79 2.2 NNE 19 22 10 12 1005.3 1005.3 0.0
01/03:00pm 18.8 16.7 15.1 79 2.2 NE 20 24 11 13 1005.4 1005.4 0.0
01/02:30pm 18.8 16.9 15.1 79 2.2 NNE 19 22 10 12 1005.6 1005.6 0.0
01/02:00pm 18.8 17.2 15.1 79 2.2 NE 17 20 9 11 1006.0 1006.0 0.0
01/01:30pm 18.8 17.5 14.9 78 2.3 NNE 15 22 8 12 1006.4 1006.4 0.0
01/01:00pm 18.0 16.8 13.9 77 2.3 NE 13 19 7 10 1006.8 1006.8 0.0
01/12:30pm 18.9 17.7 15.0 78 2.3 NE 15 19 8 10 1006.9 1006.9 0.0
01/12:00pm 18.4 16.9 14.1 76 2.5 NE 15 20 8 11 1007.1 1007.1 0.0
01/11:30am 18.2 17.3 13.7 75 2.6 NE 11 17 6 9 1007.4 1007.4 0.0
01/11:00am 18.4 17.8 14.5 78 2.3 ENE 11 15 6 8 1007.5 1007.5 0.0
01/10:30am 17.7 16.7 13.4 76 2.4 E 11 15 6 8 1007.5 1007.5 0.0
01/10:00am 17.3 15.9 13.4 78 2.2 E 13 19 7 10 1007.7 1007.7 0.0
01/09:30am 17.8 16.6 14.1 79 2.1 E 13 20 7 11 1007.9 1007.9 0.0
01/09:00am 17.0 15.4 13.9 82 1.8 E 15 20 8 11 1007.8 1007.8 0.4
01/08:30am 17.4 15.9 14.1 81 1.9 E 15 20 8 11 1007.7 1007.7 0.4
01/08:00am 17.2 15.5 14.8 86 1.4 E 17 24 9 13 1007.6 1007.6 0.4
01/07:30am 15.5 15.1 14.0 91 0.8 ENE 9 17 5 9 1007.9 1007.9 0.4
01/07:26am 15.4 14.9 13.8 90 0.9 ENE 9 17 5 9 1007.9 1007.9 0.4
01/07:00am 15.5 14.7 13.9 90 0.9 E 11 17 6 9 1007.8 1007.8 0.0
01/06:30am 15.7 14.9 13.9 89 1.0 E 11 17 6 9 1007.9 1007.9 0.0
01/06:00am 15.6 14.3 13.8 89 1.0 E 13 20 7 11 1007.9 1007.9 0.0
01/05:30am 15.5 14.3 13.9 90 0.9 E 13 19 7 10 1007.7 1007.7 0.0
01/05:00am 15.4 13.8 13.8 90 0.9 E 15 20 8 11 1007.8 1007.8 0.0
01/04:30am 15.4 14.1 13.6 89 1.0 E 13 19 7 10 1007.9 1007.9 0.0
01/04:00am 15.5 13.9 13.9 90 0.9 E 15 20 8 11 1008.0 1008.0 0.0
01/03:30am 15.4 15.3 13.8 90 0.9 ESE 7 11 4 6 1008.2 1008.2 0.0
01/03:00am 15.2 14.6 13.6 90 0.9 SE 9 13 5 7 1008.5 1008.5 0.0

Other Formats:

Comma delimited format used in spreadsheet applications
http://www.bom.gov.au/fwo/IDT60801/IDT60801.95957.axf

JavaScript Object Notation format (JSON) in row-major order
http://www.bom.gov.au/fwo/IDT60801/IDT60801.95957.json